createdAt,value
2023-04-21T00:01:44.500Z,69.80
2023-04-21T00:04:15.317Z,70.00
2023-04-21T00:06:42.757Z,70.10
2023-04-21T00:09:11.061Z,70.30
2023-04-21T00:11:38.115Z,70.30
2023-04-21T00:14:05.214Z,70.50
2023-04-21T00:16:32.575Z,70.60
2023-04-21T00:18:59.688Z,70.60
2023-04-21T00:21:26.870Z,70.60
2023-04-21T00:23:53.961Z,70.60
2023-04-21T00:26:21.120Z,70.50
2023-04-21T00:28:49.955Z,70.50
2023-04-21T00:31:16.981Z,70.60
2023-04-21T00:33:44.039Z,70.40
2023-04-21T00:36:11.043Z,70.20
2023-04-21T00:38:37.990Z,70.30
2023-04-21T00:41:05.037Z,70.40
2023-04-21T00:43:32.112Z,70.40
2023-04-21T00:45:59.158Z,70.50
2023-04-21T00:48:26.133Z,70.50
2023-04-21T00:50:53.274Z,70.60
2023-04-21T00:53:21.025Z,70.70
2023-04-21T00:55:48.185Z,70.90
2023-04-21T00:58:15.277Z,71.10
2023-04-21T01:00:44.554Z,71.20
2023-04-21T01:03:11.830Z,71.20
2023-04-21T01:05:42.554Z,71.20
2023-04-21T01:08:12.056Z,71.20
2023-04-21T01:10:38.989Z,71.20
2023-04-21T01:13:06.430Z,71.20
2023-04-21T01:15:33.960Z,71.20
2023-04-21T01:18:01.272Z,71.30
2023-04-21T01:20:29.799Z,71.30
2023-04-21T01:22:58.042Z,71.20
2023-04-21T01:25:28.311Z,72.10
2023-04-21T01:27:56.292Z,71.40
2023-04-21T01:30:23.252Z,71.50
2023-04-21T01:32:51.778Z,71.60
2023-04-21T01:35:18.800Z,71.70
2023-04-21T01:37:45.836Z,71.90
2023-04-21T01:40:13.147Z,72.00
2023-04-21T01:42:44.318Z,72.10
2023-04-21T01:45:12.449Z,72.20
2023-04-21T01:47:39.731Z,72.20
2023-04-21T01:50:07.971Z,72.20
2023-04-21T01:52:34.887Z,72.30
2023-04-21T01:55:02.308Z,72.40
2023-04-21T01:57:29.345Z,72.30
2023-04-21T01:59:57.575Z,72.30
2023-04-21T02:02:24.832Z,72.10
2023-04-21T02:04:51.886Z,72.10
2023-04-21T02:07:18.808Z,72.10
2023-04-21T02:09:46.213Z,72.20
2023-04-21T02:12:15.023Z,72.40
2023-04-21T02:14:42.598Z,72.60
2023-04-21T02:17:09.564Z,72.90
2023-04-21T02:19:37.772Z,72.90
2023-04-21T02:22:06.313Z,73.00
2023-04-21T02:24:33.320Z,73.10
2023-04-21T02:27:00.402Z,73.10
2023-04-21T02:29:28.842Z,73.10
2023-04-21T02:32:02.876Z,73.10
2023-04-21T02:34:30.606Z,73.00
2023-04-21T02:36:57.804Z,73.10
2023-04-21T02:39:26.372Z,73.10
2023-04-21T02:41:53.300Z,73.30
2023-04-21T02:44:21.205Z,73.40
2023-04-21T02:46:48.319Z,73.70
2023-04-21T02:49:15.300Z,73.80
2023-04-21T02:51:42.386Z,73.80
2023-04-21T02:54:09.465Z,74.70
2023-04-21T02:56:36.659Z,73.80
2023-04-21T02:59:03.649Z,73.80
2023-04-21T03:01:30.668Z,73.90
2023-04-21T03:03:57.724Z,73.80
2023-04-21T03:06:24.738Z,73.70
2023-04-21T03:08:52.269Z,73.70
2023-04-21T03:11:19.298Z,73.80
2023-04-21T03:13:46.183Z,73.80
2023-04-21T03:16:13.675Z,73.80
2023-04-21T03:18:40.618Z,73.80
2023-04-21T03:21:07.575Z,73.80
2023-04-21T03:23:34.564Z,73.70
2023-04-21T03:26:06.860Z,73.60
2023-04-21T03:28:33.975Z,73.40
2023-04-21T03:31:03.189Z,73.50
2023-04-21T03:33:30.371Z,73.60
2023-04-21T03:35:57.526Z,74.40
2023-04-21T03:38:24.522Z,73.70
2023-04-21T03:40:51.406Z,73.80
2023-04-21T03:43:19.097Z,73.90
2023-04-21T03:45:46.362Z,74.00
2023-04-21T03:48:13.377Z,74.00
2023-04-21T03:50:40.338Z,74.10
2023-04-21T03:53:07.252Z,74.10
2023-04-21T03:55:34.227Z,74.00
2023-04-21T03:58:01.183Z,73.80
2023-04-21T04:00:28.112Z,73.70
2023-04-21T04:02:55.174Z,73.90
2023-04-21T04:05:22.356Z,73.90
2023-04-21T04:07:49.437Z,73.90
2023-04-21T04:10:16.477Z,73.90
2023-04-21T04:12:43.577Z,74.00
2023-04-21T04:15:10.853Z,74.20
2023-04-21T04:17:37.846Z,74.40
2023-04-21T04:20:08.474Z,75.10
2023-04-21T04:22:35.828Z,74.40
2023-04-21T04:25:02.799Z,74.60
2023-04-21T04:27:29.798Z,74.80
2023-04-21T04:29:57.707Z,74.70
2023-04-21T04:32:28.490Z,74.70
2023-04-21T04:34:57.511Z,75.00
2023-04-21T04:37:25.410Z,74.70
2023-04-21T04:39:55.633Z,74.40
2023-04-21T04:42:22.573Z,74.40
2023-04-21T04:44:52.862Z,74.60
2023-04-21T04:47:19.841Z,74.40
2023-04-21T04:49:47.078Z,74.20
2023-04-21T04:52:14.267Z,74.20
2023-04-21T04:54:41.173Z,74.30
2023-04-21T04:57:08.150Z,74.30
2023-04-21T04:59:36.611Z,74.30
2023-04-21T05:02:56.610Z,74.40
2023-04-21T05:05:24.963Z,74.50
2023-04-21T05:07:52.182Z,74.30
2023-04-21T05:10:19.267Z,75.00
2023-04-21T05:12:46.333Z,74.10
2023-04-21T05:15:13.269Z,74.10
2023-04-21T05:17:40.329Z,74.20
2023-04-21T05:20:08.461Z,74.10
2023-04-21T05:22:39.254Z,74.00
2023-04-21T05:25:07.328Z,74.00
2023-04-21T05:27:34.535Z,74.00
2023-04-21T05:30:01.690Z,74.10
2023-04-21T05:32:29.370Z,74.00
2023-04-21T05:34:56.743Z,74.20
2023-04-21T05:37:23.745Z,74.20
2023-04-21T05:39:51.807Z,74.10
2023-04-21T05:42:18.831Z,74.30
2023-04-21T05:44:45.857Z,74.30
2023-04-21T05:47:12.991Z,74.40
2023-04-21T05:49:39.996Z,74.40
2023-04-21T05:52:10.628Z,74.50
2023-04-21T05:54:37.990Z,74.40
2023-04-21T05:57:05.905Z,74.50
2023-04-21T05:59:33.049Z,74.60
2023-04-21T06:02:00.914Z,74.80
2023-04-21T06:04:28.474Z,75.00
2023-04-21T06:06:56.146Z,75.20
2023-04-21T06:09:23.134Z,75.20
2023-04-21T06:11:51.066Z,75.40
2023-04-21T06:14:19.279Z,75.40
2023-04-21T06:16:46.761Z,75.60
2023-04-21T06:19:14.151Z,75.60
2023-04-21T06:21:55.898Z,75.60
2023-04-21T06:24:36.934Z,75.40
2023-04-21T06:30:40.991Z,75.30
2023-04-21T06:33:09.271Z,75.10
2023-04-21T06:35:37.125Z,75.20
2023-04-21T06:38:12.633Z,75.30
2023-04-21T06:40:39.932Z,75.50
2023-04-21T06:43:07.055Z,75.40
2023-04-21T06:45:34.364Z,74.90
2023-04-21T06:48:40.347Z,74.60
2023-04-21T06:51:07.683Z,74.40
2023-04-21T06:53:35.430Z,73.80
2023-04-21T06:56:03.668Z,73.20
2023-04-21T06:58:31.214Z,72.80
2023-04-21T07:00:58.361Z,72.10
2023-04-21T07:03:25.505Z,71.20
2023-04-21T07:05:52.653Z,70.10
2023-04-21T07:08:19.793Z,69.10
2023-04-21T07:10:47.797Z,68.60
2023-04-21T07:13:16.123Z,68.00
2023-04-21T07:15:44.413Z,67.30
2023-04-21T07:18:11.743Z,66.80
2023-04-21T07:20:39.285Z,65.90
2023-04-21T07:23:11.578Z,64.80
2023-04-21T07:25:39.172Z,64.20
2023-04-21T07:28:07.340Z,63.60
2023-04-21T07:30:34.874Z,62.60
2023-04-21T07:33:02.452Z,61.20
2023-04-21T07:35:29.536Z,59.90
2023-04-21T07:37:56.900Z,59.50
2023-04-21T07:40:24.027Z,59.00
2023-04-21T07:42:51.095Z,58.00
2023-04-21T07:45:18.352Z,57.50
2023-04-21T07:47:46.406Z,56.40
2023-04-21T07:50:13.753Z,55.70
2023-04-21T07:52:40.702Z,55.10
2023-04-21T07:55:07.964Z,54.10
2023-04-21T07:57:38.520Z,53.60
2023-04-21T08:00:06.956Z,53.40
2023-04-21T08:02:39.430Z,52.60
2023-04-21T08:05:07.294Z,51.80
2023-04-21T08:07:34.908Z,50.90
2023-04-21T08:10:02.865Z,50.20
2023-04-21T08:12:30.695Z,49.50
2023-04-21T08:15:05.924Z,48.70
2023-04-21T08:17:33.218Z,48.40
2023-04-21T08:20:01.445Z,47.90
2023-04-21T08:22:28.708Z,47.10
2023-04-21T08:24:55.792Z,46.00
2023-04-21T08:27:23.142Z,45.80
2023-04-21T08:29:51.321Z,45.20
2023-04-21T08:32:24.463Z,44.70
2023-04-21T08:34:54.601Z,44.20
2023-04-21T08:37:22.225Z,43.60
2023-04-21T08:39:53.736Z,43.10
2023-04-21T08:42:21.028Z,42.80
2023-04-21T08:44:48.085Z,42.50
2023-04-21T08:47:15.640Z,42.30
2023-04-21T08:49:45.495Z,42.90
2023-04-21T08:52:13.832Z,43.50
2023-04-21T08:54:41.326Z,43.50
2023-04-21T08:57:15.237Z,42.50
2023-04-21T08:59:43.299Z,41.80
2023-04-21T09:02:13.761Z,41.60
2023-04-21T09:04:45.814Z,41.60
2023-04-21T09:07:29.675Z,41.00
2023-04-21T09:09:58.042Z,41.00
2023-04-21T09:12:25.412Z,39.40
2023-04-21T09:14:52.512Z,38.80
2023-04-21T09:17:23.180Z,38.60
2023-04-21T09:19:50.170Z,38.10
2023-04-21T09:22:18.628Z,37.30
2023-04-21T09:24:49.453Z,36.20
2023-04-21T09:27:17.339Z,34.90
2023-04-21T09:29:48.558Z,34.80
2023-04-21T09:32:19.750Z,34.00
2023-04-21T09:34:47.254Z,34.20
2023-04-21T09:37:16.623Z,33.80
2023-04-21T09:40:03.363Z,33.80
2023-04-21T09:42:34.071Z,33.40
2023-04-21T09:45:28.422Z,32.90
2023-04-21T09:47:55.924Z,32.60
2023-04-21T09:50:51.253Z,32.20
2023-04-21T09:53:16.944Z,30.50
2023-04-21T09:55:45.554Z,29.70
2023-04-21T09:58:16.407Z,30.00
2023-04-21T10:00:43.731Z,29.80
2023-04-21T10:03:12.170Z,30.20
2023-04-21T10:05:42.039Z,29.90
2023-04-21T10:08:11.769Z,29.50
2023-04-21T10:10:39.771Z,28.90
2023-04-21T10:13:07.494Z,28.90
2023-04-21T10:15:39.888Z,28.10
2023-04-21T10:18:23.354Z,27.90
2023-04-21T10:20:59.286Z,28.20
2023-04-21T10:23:31.335Z,28.00
2023-04-21T10:26:03.526Z,27.60
2023-04-21T10:28:54.787Z,26.20
2023-04-21T10:31:24.129Z,25.90
2023-04-21T10:34:09.009Z,25.90
2023-04-21T10:36:45.921Z,24.80
2023-04-21T10:39:36.506Z,25.00
2023-04-21T10:42:15.720Z,24.20
2023-04-21T10:44:43.612Z,24.40
2023-04-21T10:47:11.455Z,24.50
2023-04-21T10:50:19.949Z,24.60
2023-04-21T10:52:58.387Z,25.20
2023-04-21T10:55:29.908Z,25.00
2023-04-21T10:57:59.274Z,24.90
2023-04-21T11:00:26.850Z,25.10
2023-04-21T11:06:36.440Z,23.30
2023-04-21T11:12:10.917Z,23.30
2023-04-21T11:14:40.400Z,23.90
2023-04-21T11:17:23.258Z,24.40
2023-04-21T11:19:55.090Z,25.20
2023-04-21T11:22:24.270Z,26.10
2023-04-21T11:24:56.082Z,26.30
2023-04-21T11:27:23.601Z,25.80
2023-04-21T11:29:51.283Z,24.30
2023-04-21T11:32:18.704Z,23.60
2023-04-21T11:34:45.890Z,23.20
2023-04-21T11:37:22.194Z,23.20
2023-04-21T11:39:49.994Z,22.10
2023-04-21T11:42:23.048Z,22.60
2023-04-21T11:44:49.830Z,23.60
2023-04-21T11:47:17.734Z,24.00
2023-04-21T11:49:50.533Z,23.20
2023-04-21T11:52:24.593Z,23.20
2023-04-21T11:55:03.329Z,23.60
2023-04-21T11:57:32.437Z,24.50
2023-04-21T12:00:06.359Z,24.90
2023-04-21T12:02:33.893Z,25.50
2023-04-21T12:05:03.490Z,26.30
2023-04-21T12:07:35.307Z,27.20
2023-04-21T12:10:08.569Z,28.10
2023-04-21T12:12:39.085Z,28.70
2023-04-21T12:15:07.367Z,29.40
2023-04-21T12:17:45.229Z,29.60
2023-04-21T12:20:15.325Z,30.10
2023-04-21T12:22:42.194Z,30.90
2023-04-21T12:25:09.117Z,31.60
2023-04-21T12:27:36.129Z,32.20
2023-04-21T12:30:05.325Z,32.90
2023-04-21T12:32:32.202Z,33.40
2023-04-21T12:35:00.769Z,33.80
2023-04-21T12:37:27.929Z,34.00
2023-04-21T12:39:54.836Z,34.30
2023-04-21T12:42:21.665Z,34.60
2023-04-21T12:44:48.706Z,34.90
2023-04-21T12:47:15.548Z,35.40
2023-04-21T12:49:42.751Z,36.10
2023-04-21T12:52:09.941Z,36.60
2023-04-21T12:54:36.804Z,36.70
2023-04-21T12:57:03.797Z,36.70
2023-04-21T12:59:32.321Z,36.90
2023-04-21T13:01:59.376Z,37.10
2023-04-21T13:04:26.570Z,37.60
2023-04-21T13:06:54.160Z,37.50
2023-04-21T13:09:21.060Z,37.60
2023-04-21T13:11:49.312Z,37.90
2023-04-21T13:14:21.556Z,38.70
2023-04-21T13:16:50.732Z,38.40
2023-04-21T13:19:19.233Z,38.80
2023-04-21T13:21:49.197Z,39.20
2023-04-21T13:24:17.852Z,39.40
2023-04-21T13:26:48.433Z,39.60
2023-04-21T13:29:17.509Z,39.90
2023-04-21T13:31:46.808Z,39.90
2023-04-21T13:34:14.898Z,40.00
2023-04-21T13:36:42.466Z,40.20
2023-04-21T13:39:10.237Z,39.80
2023-04-21T13:41:37.076Z,39.30
2023-04-21T13:44:04.019Z,38.80
2023-04-21T13:46:31.000Z,38.10
2023-04-21T13:48:59.311Z,37.80
2023-04-21T13:51:26.137Z,37.90
2023-04-21T13:53:53.432Z,37.90
2023-04-21T13:56:21.064Z,38.80
2023-04-21T13:58:49.970Z,38.10
2023-04-21T14:01:18.016Z,37.50
2023-04-21T14:03:46.401Z,36.70
2023-04-21T14:06:13.589Z,36.50
2023-04-21T14:08:40.994Z,37.00
2023-04-21T14:11:08.833Z,37.80
2023-04-21T14:13:44.592Z,38.50
2023-04-21T14:16:19.538Z,39.10
2023-04-21T14:18:47.556Z,39.30
2023-04-21T14:21:14.423Z,39.40
2023-04-21T14:23:41.499Z,39.60
2023-04-21T14:26:08.608Z,39.90
2023-04-21T14:28:35.805Z,40.40
2023-04-21T14:31:04.285Z,40.90
2023-04-21T14:33:33.099Z,41.60
2023-04-21T14:36:00.543Z,42.10
2023-04-21T14:38:29.679Z,42.70
2023-04-21T14:40:56.950Z,43.30
2023-04-21T14:43:23.743Z,43.80
2023-04-21T14:45:50.766Z,44.10
2023-04-21T14:48:17.830Z,44.40
2023-04-21T14:50:45.513Z,44.70
2023-04-21T14:53:12.423Z,45.00
2023-04-21T14:55:39.262Z,45.50
2023-04-21T14:58:06.095Z,46.00
2023-04-21T15:00:34.837Z,46.30
2023-04-21T15:03:02.070Z,46.40
2023-04-21T15:05:29.314Z,46.40
2023-04-21T15:07:56.320Z,46.70
2023-04-21T15:10:23.222Z,47.10
2023-04-21T15:12:50.078Z,46.80
2023-04-21T15:15:17.038Z,46.20
2023-04-21T15:17:44.880Z,45.20
2023-04-21T15:20:11.859Z,44.30
2023-04-21T15:22:39.320Z,43.80
2023-04-21T15:25:06.557Z,43.90
2023-04-21T15:27:35.357Z,43.40
2023-04-21T15:30:04.424Z,42.90
2023-04-21T15:32:31.191Z,42.80
2023-04-21T15:34:57.974Z,43.00
2023-04-21T15:37:25.804Z,43.40
2023-04-21T15:39:52.915Z,43.80
2023-04-21T15:42:19.962Z,43.90
2023-04-21T15:44:47.073Z,43.90
2023-04-21T15:47:16.575Z,44.10
2023-04-21T15:49:43.674Z,44.70
2023-04-21T15:52:11.436Z,44.70
2023-04-21T15:54:39.144Z,44.70
2023-04-21T15:57:06.572Z,44.70
2023-04-21T15:59:33.602Z,45.20
2023-04-21T16:02:00.653Z,45.50
2023-04-21T16:04:28.328Z,45.70
2023-04-21T16:06:55.740Z,45.60
2023-04-21T16:09:22.767Z,45.50
2023-04-21T16:11:52.480Z,45.60
2023-04-21T16:14:19.481Z,45.60
2023-04-21T16:16:46.589Z,46.10
2023-04-21T16:19:13.782Z,46.70
2023-04-21T16:21:40.979Z,47.30
2023-04-21T16:24:08.642Z,47.90
2023-04-21T16:26:36.874Z,47.40
2023-04-21T16:29:04.004Z,47.50
2023-04-21T16:31:31.577Z,47.80
2023-04-21T16:34:00.112Z,48.00
2023-04-21T16:36:32.345Z,48.10
2023-04-21T16:38:59.592Z,48.50
2023-04-21T16:41:26.516Z,48.60
2023-04-21T16:43:53.594Z,48.60
2023-04-21T16:46:20.834Z,48.60
2023-04-21T16:48:47.766Z,48.70
2023-04-21T16:51:14.876Z,48.90
2023-04-21T16:53:42.575Z,49.10
2023-04-21T16:56:09.730Z,49.00
2023-04-21T16:58:37.714Z,49.30
2023-04-21T17:01:05.060Z,49.60
2023-04-21T17:03:32.108Z,49.90
2023-04-21T17:05:59.155Z,50.30
2023-04-21T17:08:26.391Z,50.70
2023-04-21T17:10:55.352Z,51.30
2023-04-21T17:13:23.652Z,51.70
2023-04-21T17:15:51.500Z,52.20
2023-04-21T17:18:19.051Z,52.40
2023-04-21T17:20:45.996Z,52.80
2023-04-21T17:23:13.238Z,52.70
2023-04-21T17:25:41.299Z,52.70
2023-04-21T17:28:08.585Z,52.90
2023-04-21T17:30:36.436Z,53.10
2023-04-21T17:33:15.341Z,53.10
2023-04-21T17:36:01.782Z,53.10
2023-04-21T17:38:30.301Z,53.50
2023-04-21T17:40:57.232Z,53.70
2023-04-21T17:43:24.441Z,54.00
2023-04-21T17:45:52.415Z,54.20
2023-04-21T17:48:20.599Z,54.20
2023-04-21T17:50:47.674Z,54.30
2023-04-21T17:53:14.684Z,54.40
2023-04-21T17:55:42.027Z,54.70
2023-04-21T17:58:11.627Z,55.00
2023-04-21T18:00:39.378Z,55.30
2023-04-21T18:03:06.696Z,55.40
2023-04-21T18:05:34.316Z,55.50
2023-04-21T18:08:01.665Z,55.70
2023-04-21T18:10:29.727Z,55.80
2023-04-21T18:12:57.556Z,55.50
2023-04-21T18:15:24.609Z,55.50
2023-04-21T18:17:53.277Z,55.80
2023-04-21T18:20:20.792Z,56.20
2023-04-21T18:22:49.086Z,56.40
2023-04-21T18:25:22.120Z,56.30
2023-04-21T18:27:54.692Z,56.10
2023-04-21T18:30:21.865Z,56.10
2023-04-21T18:32:49.462Z,56.10
2023-04-21T18:35:16.861Z,56.30
2023-04-21T18:37:44.273Z,56.30
2023-04-21T18:40:11.753Z,56.40
2023-04-21T18:42:40.059Z,56.60
2023-04-21T18:45:08.338Z,56.70
2023-04-21T18:47:35.991Z,56.90
2023-04-21T18:50:03.037Z,57.00
2023-04-21T18:52:30.290Z,57.10
2023-04-21T18:54:57.253Z,57.00
2023-04-21T18:57:25.776Z,57.10
2023-04-21T18:59:52.979Z,57.20
2023-04-21T19:02:20.018Z,57.20
2023-04-21T19:04:47.553Z,57.60
2023-04-21T19:07:15.838Z,57.90
2023-04-21T19:09:44.242Z,58.00
2023-04-21T19:12:11.559Z,58.00
2023-04-21T19:14:46.503Z,58.10
2023-04-21T19:17:14.866Z,58.40
2023-04-21T19:19:42.512Z,58.40
2023-04-21T19:22:09.425Z,58.30
2023-04-21T19:24:40.004Z,58.40
2023-04-21T19:27:07.409Z,58.60
2023-04-21T19:29:36.651Z,58.90
2023-04-21T19:32:03.799Z,59.20
2023-04-21T19:34:30.982Z,59.30
2023-04-21T19:36:58.074Z,59.40
2023-04-21T19:39:25.027Z,59.50
2023-04-21T19:41:51.905Z,59.50
2023-04-21T19:44:19.251Z,59.50
2023-04-21T19:46:46.190Z,59.70
2023-04-21T19:49:14.138Z,60.00
2023-04-21T19:51:41.462Z,60.20
2023-04-21T19:54:12.101Z,60.50
2023-04-21T19:56:40.709Z,60.80
2023-04-21T19:59:07.966Z,60.90
2023-04-21T20:01:35.014Z,61.10
2023-04-21T20:04:02.830Z,61.30
2023-04-21T20:06:30.116Z,61.50
2023-04-21T20:08:59.941Z,61.60
2023-04-21T20:11:28.933Z,61.80
2023-04-21T20:13:56.462Z,61.90
2023-04-21T20:16:26.253Z,61.90
2023-04-21T20:18:55.554Z,62.10
2023-04-21T20:21:22.622Z,62.50
2023-04-21T20:23:49.889Z,62.50
2023-04-21T20:26:25.353Z,62.70
2023-04-21T20:28:53.840Z,62.80
2023-04-21T20:31:23.699Z,62.80
2023-04-21T20:33:52.771Z,63.10
2023-04-21T20:36:19.838Z,63.20
2023-04-21T20:39:06.208Z,63.20
2023-04-21T20:41:33.884Z,63.30
2023-04-21T20:44:01.119Z,63.40
2023-04-21T20:46:29.883Z,63.40
2023-04-21T20:48:57.108Z,63.40
2023-04-21T20:51:27.643Z,63.60
2023-04-21T20:53:54.755Z,63.60
2023-04-21T20:56:22.474Z,63.60
2023-04-21T20:58:51.033Z,63.50
2023-04-21T21:01:18.389Z,63.80
2023-04-21T21:03:47.925Z,63.90
2023-04-21T21:06:15.932Z,64.00
2023-04-21T21:08:42.932Z,64.30
2023-04-21T21:11:09.934Z,64.40
2023-04-21T21:13:36.854Z,64.50
2023-04-21T21:16:04.521Z,64.70
2023-04-21T21:18:34.611Z,64.80
2023-04-21T21:21:01.815Z,64.80
2023-04-21T21:23:29.015Z,64.90
2023-04-21T21:25:56.051Z,64.90
2023-04-21T21:28:22.987Z,65.10
2023-04-21T21:30:50.569Z,65.20
2023-04-21T21:33:17.586Z,65.30
2023-04-21T21:35:44.899Z,65.20
2023-04-21T21:38:12.055Z,65.30
2023-04-21T21:40:39.107Z,65.60
2023-04-21T21:43:06.649Z,65.70
2023-04-21T21:45:34.011Z,65.70
2023-04-21T21:48:01.266Z,65.80
2023-04-21T21:50:30.110Z,65.70
2023-04-21T21:52:57.871Z,66.50
2023-04-21T21:55:24.845Z,65.80
2023-04-21T21:57:52.076Z,65.80
2023-04-21T22:00:19.287Z,66.00
2023-04-21T22:02:46.492Z,66.20
2023-04-21T22:05:16.192Z,66.20
2023-04-21T22:07:46.983Z,66.30
2023-04-21T22:10:14.836Z,66.40
2023-04-21T22:12:42.385Z,66.40
2023-04-21T22:15:12.247Z,66.50
2023-04-21T22:17:39.450Z,66.80
2023-04-21T22:20:08.948Z,66.90
2023-04-21T22:22:36.464Z,67.00
2023-04-21T22:25:03.574Z,67.10
2023-04-21T22:27:33.881Z,67.10
2023-04-21T22:30:02.550Z,67.00
2023-04-21T22:32:32.414Z,66.90
2023-04-21T22:35:00.468Z,66.90
2023-04-21T22:37:27.986Z,67.00
2023-04-21T22:39:57.263Z,67.10
2023-04-21T22:42:24.779Z,67.20
2023-04-21T22:44:51.948Z,67.10
2023-04-21T22:47:19.405Z,67.30
2023-04-21T22:49:46.604Z,67.50
2023-04-21T22:52:14.678Z,67.60
2023-04-21T22:54:41.842Z,67.60
2023-04-21T22:57:08.894Z,67.60
2023-04-21T22:59:36.004Z,67.60
2023-04-21T23:02:04.983Z,67.70
2023-04-21T23:04:31.967Z,67.70
2023-04-21T23:06:59.068Z,67.60
2023-04-21T23:09:25.904Z,67.40
2023-04-21T23:11:53.387Z,67.40
2023-04-21T23:14:20.657Z,67.50
2023-04-21T23:16:47.599Z,67.60
2023-04-21T23:19:14.618Z,67.90
2023-04-21T23:21:42.081Z,68.00
2023-04-21T23:24:09.029Z,68.10
2023-04-21T23:26:35.937Z,68.20
2023-04-21T23:29:02.897Z,68.20
2023-04-21T23:31:31.026Z,68.30
2023-04-21T23:34:00.142Z,68.30
2023-04-21T23:36:27.808Z,68.30
2023-04-21T23:38:54.677Z,68.50
2023-04-21T23:41:21.600Z,68.50
2023-04-21T23:43:48.509Z,68.60
2023-04-21T23:46:15.601Z,68.70
2023-04-21T23:48:42.462Z,68.80
2023-04-21T23:51:09.473Z,68.90
2023-04-21T23:53:36.618Z,68.90
2023-04-21T23:56:03.769Z,68.90
2023-04-21T23:58:31.089Z,68.90
